createdAt,value
2023-02-13T05:10:00.758Z,6.46
2023-02-13T05:14:52.492Z,4.08
2023-02-13T05:19:44.189Z,3.28
2023-02-13T05:24:35.907Z,4.77
2023-02-13T05:29:27.612Z,5.03
2023-02-13T05:34:21.200Z,5.20
2023-02-13T05:39:13.378Z,5.45
2023-02-13T05:44:05.702Z,5.95
2023-02-13T05:48:57.508Z,3.94
2023-02-13T05:53:49.200Z,4.33
2023-02-13T05:58:40.886Z,5.83
2023-02-13T06:03:33.332Z,5.32
2023-02-13T06:08:25.411Z,5.20
2023-02-13T06:13:17.809Z,4.91
2023-02-13T06:18:10.117Z,4.41
2023-02-13T06:23:02.039Z,4.72
2023-02-13T06:27:53.889Z,4.77
2023-02-13T06:32:49.331Z,4.61
2023-02-13T06:37:43.896Z,4.73
2023-02-13T06:42:35.598Z,3.44
2023-02-13T06:47:27.413Z,2.26
2023-02-13T06:52:19.729Z,5.33
2023-02-13T06:57:11.588Z,5.48
2023-02-13T07:02:03.364Z,2.62
2023-02-13T07:06:57.054Z,3.74
2023-02-13T07:11:48.802Z,5.55
2023-02-13T07:16:40.517Z,5.06
2023-02-13T07:21:32.254Z,4.22
2023-02-13T07:26:24.160Z,1.89
2023-02-13T07:31:16.176Z,5.68
2023-02-13T07:36:08.190Z,3.32
2023-02-13T07:41:01.350Z,4.31
2023-02-13T07:45:55.716Z,5.30
2023-02-13T07:50:47.596Z,7.88
2023-02-13T07:55:39.586Z,8.86
2023-02-13T08:00:31.388Z,8.50
2023-02-13T08:05:23.129Z,10.12
2023-02-13T08:10:33.960Z,9.14
2023-02-13T08:15:26.039Z,10.39
2023-02-13T08:20:17.918Z,9.75
2023-02-13T08:25:09.698Z,11.13
2023-02-13T08:30:03.305Z,11.45
2023-02-13T08:34:55.028Z,10.79
2023-02-13T08:39:46.794Z,12.32
2023-02-13T08:44:41.031Z,12.37
2023-02-13T08:49:33.196Z,12.33
2023-02-13T08:54:24.876Z,11.20
2023-02-13T08:59:16.580Z,12.20
2023-02-13T09:04:08.405Z,10.25
2023-02-13T09:09:00.121Z,10.88
2023-02-13T09:13:55.356Z,9.35
2023-02-13T09:18:48.692Z,10.55
2023-02-13T09:23:41.312Z,10.71
2023-02-13T09:28:34.958Z,11.28
2023-02-13T09:33:27.139Z,10.05
2023-02-13T09:38:19.151Z,10.82
2023-02-13T09:43:22.926Z,10.27
2023-02-13T09:48:23.066Z,9.62
2023-02-13T09:53:23.261Z,10.91
2023-02-13T09:58:20.630Z,10.93
2023-02-13T10:03:44.927Z,10.60
2023-02-13T10:08:55.164Z,10.29
2023-02-13T10:14:14.264Z,8.15
2023-02-13T10:19:27.667Z,10.58
2023-02-13T10:24:34.780Z,10.32
2023-02-13T10:30:02.393Z,10.10
2023-02-13T10:34:57.681Z,9.07
2023-02-13T10:39:52.435Z,8.42
2023-02-13T10:44:57.816Z,8.38
2023-02-13T10:50:14.386Z,10.43
2023-02-13T10:55:42.540Z,8.68
2023-02-13T11:00:44.404Z,9.54
2023-02-13T11:05:40.813Z,9.02
2023-02-13T11:10:32.499Z,10.49
2023-02-13T11:15:26.607Z,10.76
2023-02-13T11:20:27.352Z,10.69
2023-02-13T11:25:22.753Z,10.83
2023-02-13T11:30:23.559Z,11.06
2023-02-13T11:35:41.921Z,11.13
2023-02-13T11:40:33.656Z,11.35
2023-02-13T11:45:26.401Z,10.61
2023-02-13T11:50:37.761Z,11.18
2023-02-13T11:55:42.846Z,11.72
2023-02-13T12:00:39.820Z,10.32
2023-02-13T12:05:31.490Z,9.93
2023-02-13T12:10:32.647Z,12.23
2023-02-13T12:15:28.111Z,12.39
2023-02-13T12:20:20.372Z,11.24
2023-02-13T12:25:35.604Z,12.61
2023-02-13T12:31:08.626Z,11.61
2023-02-13T12:36:16.899Z,12.55
2023-02-13T12:41:24.003Z,11.92
2023-02-13T12:46:39.544Z,13.05
2023-02-13T12:51:46.887Z,13.39
2023-02-13T12:56:41.569Z,13.50
2023-02-13T13:01:45.433Z,13.44
2023-02-13T13:07:03.742Z,12.90
2023-02-13T13:12:05.130Z,13.41
2023-02-13T13:17:26.174Z,13.34
2023-02-13T13:22:29.478Z,13.20
2023-02-13T13:27:27.443Z,12.79
2023-02-13T13:32:21.594Z,13.16
2023-02-13T13:37:27.228Z,12.52
2023-02-13T13:42:30.188Z,13.06
2023-02-13T13:47:21.808Z,13.70
2023-02-13T13:52:26.219Z,13.89
2023-02-13T13:57:21.846Z,11.69
2023-02-13T14:02:19.412Z,13.89
2023-02-13T14:07:16.398Z,12.81
2023-02-13T14:12:29.944Z,13.89
2023-02-13T14:17:46.498Z,14.03
2023-02-13T14:22:38.813Z,12.07
2023-02-13T14:27:37.333Z,13.91
2023-02-13T14:32:37.715Z,13.92
2023-02-13T14:37:39.716Z,10.87
2023-02-13T14:42:34.060Z,12.88
2023-02-13T14:47:35.842Z,13.76
2023-02-13T14:52:37.520Z,13.32
2023-02-13T14:57:39.728Z,12.19
2023-02-13T15:02:45.011Z,12.02
2023-02-13T15:07:44.395Z,13.52
2023-02-13T15:12:37.598Z,13.45
2023-02-13T15:17:38.076Z,12.14
2023-02-13T15:22:36.451Z,12.52
2023-02-13T15:27:34.212Z,13.27
2023-02-13T15:32:34.560Z,10.96
2023-02-13T15:37:31.134Z,12.75
2023-02-13T15:42:22.949Z,11.68
2023-02-13T15:47:22.556Z,11.84
2023-02-13T15:52:25.485Z,12.76
2023-02-13T15:57:18.337Z,10.61
2023-02-13T16:02:16.925Z,10.48
2023-02-13T16:07:13.261Z,12.34
2023-02-13T16:12:05.005Z,12.38
2023-02-13T16:17:01.183Z,12.28
2023-02-13T16:21:54.562Z,11.75
2023-02-13T16:26:46.539Z,11.90
2023-02-13T16:31:39.640Z,11.30
2023-02-13T16:36:34.269Z,11.30
2023-02-13T16:41:25.930Z,11.43
2023-02-13T16:46:26.956Z,11.27
2023-02-13T16:51:34.350Z,10.32
2023-02-13T16:56:26.323Z,8.92
2023-02-13T17:01:18.270Z,9.68
2023-02-13T17:06:10.784Z,9.64
2023-02-13T17:11:05.452Z,8.40
2023-02-13T17:15:58.339Z,7.34
2023-02-13T17:20:50.309Z,10.49
2023-02-13T17:25:43.543Z,8.57
2023-02-13T17:30:35.253Z,8.17
2023-02-13T17:35:27.032Z,8.15
2023-02-13T17:40:21.782Z,6.72
2023-02-13T17:45:18.634Z,8.75
2023-02-13T17:50:12.243Z,8.38
2023-02-13T17:55:04.624Z,8.21
2023-02-13T17:59:56.970Z,8.11
2023-02-13T18:04:50.140Z,9.60
2023-02-13T18:09:42.069Z,9.55
2023-02-13T18:14:34.713Z,7.58
2023-02-13T18:19:27.423Z,8.29
2023-02-13T18:24:19.208Z,8.17
2023-02-13T18:29:11.039Z,5.51
2023-02-13T18:34:02.762Z,7.16
2023-02-13T18:38:54.478Z,5.93
2023-02-13T18:43:46.268Z,6.72
2023-02-13T18:48:38.011Z,8.55
2023-02-13T18:53:30.021Z,7.10
2023-02-13T18:58:21.709Z,8.06
2023-02-13T19:03:13.396Z,8.66
2023-02-13T19:08:05.735Z,8.59
2023-02-13T19:12:57.453Z,6.76
2023-02-13T19:17:49.177Z,7.55
2023-02-13T19:22:40.969Z,8.43
2023-02-13T19:27:32.683Z,6.31
2023-02-13T19:32:24.484Z,7.59
2023-02-13T19:37:16.163Z,8.78
2023-02-13T19:42:07.928Z,6.18
2023-02-13T19:46:59.605Z,8.50
2023-02-13T19:51:51.335Z,6.88
2023-02-13T19:56:43.799Z,6.84
2023-02-13T20:01:35.532Z,6.92
2023-02-13T20:06:32.305Z,8.01
2023-02-13T20:11:24.083Z,6.87
2023-02-13T20:16:17.071Z,6.51
2023-02-13T20:21:11.538Z,7.39
2023-02-13T20:26:09.191Z,7.72
2023-02-13T20:31:01.453Z,6.94
2023-02-13T20:35:53.409Z,5.73
2023-02-13T20:40:45.149Z,5.82
2023-02-13T20:45:36.845Z,6.78
2023-02-13T20:50:28.742Z,4.99
2023-02-13T20:55:20.414Z,4.89
2023-02-13T21:00:13.627Z,4.33
2023-02-13T21:05:05.840Z,5.86
2023-02-13T21:09:57.613Z,4.86
2023-02-13T21:14:49.405Z,5.57
2023-02-13T21:19:41.150Z,4.94
2023-02-13T21:24:32.847Z,5.31
2023-02-13T21:29:24.574Z,5.13
2023-02-13T21:34:17.505Z,4.69
2023-02-13T21:39:10.994Z,5.69
2023-02-13T21:44:02.826Z,5.55
2023-02-13T21:48:57.113Z,6.70
2023-02-13T21:53:49.827Z,5.20
2023-02-13T21:58:43.034Z,3.89
2023-02-13T22:03:35.470Z,4.86
2023-02-13T22:08:27.375Z,4.80
2023-02-13T22:13:19.067Z,5.10
2023-02-13T22:18:10.781Z,3.61
2023-02-13T22:23:02.467Z,4.40
2023-02-13T22:27:54.208Z,3.43
2023-02-13T22:32:45.995Z,4.48
2023-02-13T22:37:37.978Z,4.19
2023-02-13T22:42:29.895Z,2.87
2023-02-13T22:47:21.593Z,2.40
2023-02-13T22:52:14.528Z,3.88
2023-02-13T22:57:06.395Z,5.30
2023-02-13T23:01:58.145Z,3.63
2023-02-13T23:06:49.864Z,5.58
2023-02-13T23:12:00.164Z,5.13
2023-02-13T23:17:10.554Z,5.64
2023-02-13T23:22:02.251Z,5.55
2023-02-13T23:26:54.009Z,2.96
2023-02-13T23:31:45.798Z,2.56
2023-02-13T23:36:37.735Z,1.37
2023-02-13T23:41:29.436Z,4.21
2023-02-13T23:46:21.173Z,3.30
2023-02-13T23:51:13.385Z,2.80
2023-02-13T23:56:05.600Z,3.64
